Time;durP1;ratioP1;P1;durP2;ratioP2;P2;SDS_P1;SDS_P2;PMS_P1;PMS_P2;Temp;Humidity;BMP_temperature;BMP_pressure;BME280_temperature;BME280_humidity;BME280_pressure;Samples;Min_cycle;Max_cycle;Signal;HPM_P1;HPM_P2
2023/10/02 00:01:52;;;;;;;1999.90;999.90;;;10.40;94.20;;;;;;5040402;28;20039;-72
2023/10/02 00:04:24;;;;;;;1999.90;999.90;;;10.40;94.20;;;;;;5042736;28;20414;-74
2023/10/02 00:07:06;;;;;;;1999.90;999.90;;;10.40;94.30;;;;;;5040082;28;20025;-74
2023/10/02 00:09:36;;;;;;;1999.90;999.90;;;10.40;94.10;;;;;;5037675;28;20045;-74
2023/10/02 00:12:11;;;;;;;1999.90;999.90;;;10.40;94.30;;;;;;5041619;28;20556;-73
2023/10/02 00:14:38;;;;;;;1999.90;999.90;;;10.30;94.10;;;;;;5040694;28;20116;-73
2023/10/02 00:17:13;;;;;;;1999.90;999.90;;;10.30;94.00;;;;;;5040411;28;20091;-74
2023/10/02 00:19:45;;;;;;;1999.90;999.90;;;10.20;94.10;;;;;;5036478;28;20053;-74
2023/10/02 00:25:03;;;;;;;1999.90;999.90;;;10.20;94.40;;;;;;5036100;28;20048;-73
2023/10/02 00:27:29;;;;;;;1999.90;999.90;;;10.20;94.60;;;;;;5035601;28;20034;-74
2023/10/02 00:29:58;;;;;;;1999.90;999.90;;;10.20;94.60;;;;;;5040693;28;20522;-72
2023/10/02 00:32:26;;;;;;;1999.90;999.90;;;10.10;94.50;;;;;;5038776;28;20053;-73
2023/10/02 00:34:53;;;;;;;1999.90;999.90;;;10.10;94.70;;;;;;5038608;28;20120;-74
2023/10/02 00:37:19;;;;;;;1999.90;999.90;;;10.10;94.70;;;;;;5036031;28;20026;-73
2023/10/02 00:39:50;;;;;;;1999.90;999.90;;;10.10;94.70;;;;;;5040608;28;20515;-74
2023/10/02 00:42:16;;;;;;;1999.90;999.90;;;10.10;94.80;;;;;;5033771;28;20037;-74
2023/10/02 00:44:52;;;;;;;1999.90;999.90;;;10.10;94.80;;;;;;5037394;28;20037;-73
2023/10/02 00:47:40;;;;;;;1999.90;999.90;;;10.10;94.80;;;;;;5037063;28;20549;-73
2023/10/02 00:50:10;;;;;;;1999.90;999.90;;;10.10;94.50;;;;;;5032977;28;20035;-74
2023/10/02 00:52:41;;;;;;;1999.90;999.90;;;10.10;94.50;;;;;;5036188;28;20034;-73
2023/10/02 00:55:09;;;;;;;1999.90;999.90;;;10.10;94.60;;;;;;5035493;28;20120;-72
2023/10/02 00:57:38;;;;;;;1999.90;999.90;;;10.10;94.60;;;;;;5036219;28;20022;-73
2023/10/02 01:00:06;;;;;;;1999.90;999.90;;;10.00;94.50;;;;;;5042845;28;20088;-74
2023/10/02 01:02:35;;;;;;;1999.90;999.90;;;10.00;94.40;;;;;;5044973;28;20487;-73
2023/10/02 01:05:03;;;;;;;1999.90;999.90;;;10.00;94.40;;;;;;5039160;28;20040;-72
2023/10/02 01:07:33;;;;;;;1999.90;999.90;;;9.90;94.30;;;;;;5039312;28;20018;-73
2023/10/02 01:10:07;;;;;;;1999.90;999.90;;;9.90;94.10;;;;;;5039329;28;20049;-73
2023/10/02 01:12:43;;;;;;;1999.90;999.90;;;9.80;94.00;;;;;;5035177;28;20095;-72
2023/10/02 01:15:12;;;;;;;1999.90;999.90;;;9.80;94.00;;;;;;5040020;28;20395;-73
2023/10/02 01:17:45;;;;;;;1999.90;999.90;;;9.80;94.30;;;;;;5036276;28;20119;-73
2023/10/02 01:23:11;;;;;;;1999.90;999.90;;;9.90;94.50;;;;;;5039879;28;20451;-74
2023/10/02 01:25:40;;;;;;;1999.90;999.90;;;9.90;94.50;;;;;;5038757;28;20446;-73
2023/10/02 01:28:09;;;;;;;1999.90;999.90;;;9.80;94.30;;;;;;5040275;28;20531;-73
2023/10/02 01:30:35;;;;;;;1999.90;999.90;;;9.80;94.40;;;;;;5037452;28;20586;-74
2023/10/02 01:33:35;;;;;;;1999.90;999.90;;;9.70;94.30;;;;;;5039100;28;20048;-74
2023/10/02 01:35:56;;;;;;;1999.90;999.90;;;9.70;94.30;;;;;;5037871;28;20049;-73
2023/10/02 01:38:31;;;;;;;1999.90;999.90;;;9.60;94.20;;;;;;5033573;28;20035;-73
2023/10/02 01:41:06;;;;;;;1999.90;999.90;;;9.60;94.30;;;;;;5031036;28;20109;-72
2023/10/02 01:43:40;;;;;;;1999.90;999.90;;;9.60;94.50;;;;;;5036277;28;20060;-72
2023/10/02 01:46:07;;;;;;;1999.90;999.90;;;9.50;94.60;;;;;;5037051;28;20029;-73
2023/10/02 01:48:37;;;;;;;1999.90;999.90;;;9.60;94.70;;;;;;5034460;28;20070;-74
2023/10/02 01:51:26;;;;;;;1999.90;999.90;;;9.60;94.90;;;;;;5038252;28;20515;-73
2023/10/02 01:54:03;;;;;;;1999.90;999.90;;;9.60;95.00;;;;;;5034473;28;20036;-74
2023/10/02 01:56:31;;;;;;;1999.90;999.90;;;9.60;95.10;;;;;;5037111;28;20037;-73
2023/10/02 01:59:19;;;;;;;1999.90;999.90;;;9.60;95.10;;;;;;5040065;28;20100;-74
2023/10/02 02:01:52;;;;;;;1999.90;999.90;;;9.50;95.10;;;;;;5032403;28;20045;-73
2023/10/02 02:04:25;;;;;;;1999.90;999.90;;;9.50;95.20;;;;;;5033151;28;20339;-73
2023/10/02 02:06:52;;;;;;;1999.90;999.90;;;9.60;95.40;;;;;;5037687;28;20048;-73
2023/10/02 02:09:23;;;;;;;1999.90;999.90;;;9.60;95.50;;;;;;5029929;28;20471;-73
2023/10/02 02:12:05;;;;;;;1999.90;999.90;;;9.50;95.40;;;;;;5029632;28;20099;-73
2023/10/02 02:14:49;;;;;;;1999.90;999.90;;;9.50;95.30;;;;;;5032727;28;20117;-74
2023/10/02 02:17:18;;;;;;;1999.90;999.90;;;9.40;95.30;;;;;;5041007;28;20414;-73
2023/10/02 02:19:48;;;;;;;1999.90;999.90;;;9.40;95.40;;;;;;5052363;28;20036;-73
2023/10/02 02:22:18;;;;;;;1999.90;999.90;;;9.40;95.40;;;;;;5042714;28;20029;-72
2023/10/02 02:24:44;;;;;;;1999.90;999.90;;;9.40;95.40;;;;;;5039424;28;20029;-72
2023/10/02 02:27:11;;;;;;;1999.90;999.90;;;9.30;95.40;;;;;;5034330;28;20042;-73
2023/10/02 02:29:38;;;;;;;1999.90;999.90;;;9.30;95.40;;;;;;5035442;28;20407;-73
2023/10/02 02:32:06;;;;;;;1999.90;999.90;;;9.30;95.40;;;;;;5040926;28;20128;-73
2023/10/02 02:34:32;;;;;;;1999.90;999.90;;;9.30;95.40;;;;;;5031408;28;20049;-74
2023/10/02 02:36:59;;;;;;;1999.90;999.90;;;9.30;95.30;;;;;;5036845;28;20034;-73
2023/10/02 02:39:27;;;;;;;1999.90;999.90;;;9.40;95.70;;;;;;5037703;28;20036;-74
2023/10/02 02:42:09;;;;;;;1999.90;999.90;;;9.50;96.00;;;;;;5041114;28;20036;-72
2023/10/02 02:44:39;;;;;;;1999.90;999.90;;;9.50;96.10;;;;;;5037600;28;20501;-73
2023/10/02 02:47:09;;;;;;;1999.90;999.90;;;9.50;96.30;;;;;;5036766;28;20660;-73
2023/10/02 02:49:50;;;;;;;1999.90;999.90;;;9.50;96.10;;;;;;5039452;28;20037;-73
2023/10/02 02:52:16;;;;;;;1999.90;999.90;;;9.50;96.20;;;;;;5037798;28;20033;-74
2023/10/02 02:54:44;;;;;;;1999.90;999.90;;;9.50;96.20;;;;;;5034709;28;20484;-74
2023/10/02 02:57:12;;;;;;;1999.90;999.90;;;9.50;96.30;;;;;;5037895;28;20116;-73
2023/10/02 02:59:38;;;;;;;1999.90;999.90;;;9.60;96.40;;;;;;5032182;28;20044;-73
2023/10/02 03:02:20;;;;;;;1999.90;999.90;;;9.60;96.30;;;;;;5036267;28;20427;-73
2023/10/02 03:04:47;;;;;;;1999.90;999.90;;;9.50;96.60;;;;;;5037473;28;20669;-73
2023/10/02 03:07:36;;;;;;;1999.90;999.90;;;9.50;96.60;;;;;;5038471;28;20119;-73
2023/10/02 03:10:02;;;;;;;1999.90;999.90;;;9.40;96.50;;;;;;5029633;28;20380;-73
2023/10/02 03:12:29;;;;;;;1999.90;999.90;;;9.40;96.60;;;;;;5036991;28;20029;-73
2023/10/02 03:14:58;;;;;;;1999.90;999.90;;;9.30;96.60;;;;;;5039040;28;20036;-73
2023/10/02 03:17:30;;;;;;;1999.90;999.90;;;9.30;96.90;;;;;;5039255;28;20029;-74
2023/10/02 03:19:58;;;;;;;1999.90;999.90;;;9.40;96.70;;;;;;5035388;28;20029;-73
2023/10/02 03:22:24;;;;;;;1999.90;999.90;;;9.40;96.80;;;;;;5041040;28;20068;-72
2023/10/02 03:24:54;;;;;;;1999.90;999.90;;;9.30;96.60;;;;;;5043382;28;20053;-74
2023/10/02 03:27:21;;;;;;;1999.90;999.90;;;9.30;96.70;;;;;;5033342;28;20037;-73
2023/10/02 03:29:49;;;;;;;1999.90;999.90;;;9.30;96.70;;;;;;5042197;28;20041;-74
2023/10/02 03:32:15;;;;;;;1999.90;999.90;;;9.30;97.00;;;;;;5046205;28;20049;-76
2023/10/02 03:34:48;;;;;;;1999.90;999.90;;;9.30;96.90;;;;;;5036538;28;20038;-73
2023/10/02 03:37:15;;;;;;;1999.90;999.90;;;9.30;96.90;;;;;;5044024;28;20125;-74
2023/10/02 03:40:00;;;;;;;1999.90;999.90;;;9.30;96.90;;;;;;5038827;28;20148;-73
2023/10/02 03:42:30;;;;;;;1999.90;999.90;;;9.30;97.00;;;;;;5039747;28;20029;-73
2023/10/02 03:44:57;;;;;;;1999.90;999.90;;;9.40;97.00;;;;;;5038107;28;20120;-74
2023/10/02 03:47:33;;;;;;;1999.90;999.90;;;9.30;96.90;;;;;;5041487;28;20041;-73
2023/10/02 03:50:03;;;;;;;1999.90;999.90;;;9.30;96.90;;;;;;5045665;28;20076;-73
2023/10/02 03:52:31;;;;;;;1999.90;999.90;;;9.30;97.00;;;;;;5038280;28;20036;-74
2023/10/02 03:54:59;;;;;;;1999.90;999.90;;;9.30;96.90;;;;;;5037824;28;20080;-74
2023/10/02 04:00:17;;;;;;;1999.90;999.90;;;9.30;97.40;;;;;;5033874;28;20065;-74
2023/10/02 04:02:45;;;;;;;1999.90;999.90;;;9.20;97.30;;;;;;5034667;28;20264;-73
2023/10/02 04:05:30;;;;;;;1999.90;999.90;;;9.20;97.30;;;;;;5036169;28;20040;-73
2023/10/02 04:08:12;;;;;;;1999.90;999.90;;;9.20;97.40;;;;;;5041717;28;20033;-73
2023/10/02 04:10:51;;;;;;;1999.90;999.90;;;9.30;97.50;;;;;;5035769;28;20159;-73
2023/10/02 04:13:21;;;;;;;1999.90;999.90;;;9.30;97.60;;;;;;5044866;28;20041;-72
2023/10/02 04:15:48;;;;;;;1999.90;999.90;;;9.30;97.70;;;;;;5038973;28;20551;-73
2023/10/02 04:18:45;;;;;;;1999.90;999.90;;;9.30;97.60;;;;;;5041177;28;20040;-73
2023/10/02 04:21:05;;;;;;;1999.90;999.90;;;9.30;97.60;;;;;;5039001;28;20441;-73
2023/10/02 04:23:40;;;;;;;1999.90;999.90;;;9.30;97.70;;;;;;5034662;28;20094;-72
2023/10/02 04:26:21;;;;;;;;;;;9.30;97.80;;;;;;5037786;28;20045;-73
2023/10/02 04:29:13;;;;;;;1999.90;999.90;;;9.20;97.60;;;;;;5041605;28;20272;-73
2023/10/02 04:31:41;;;;;;;1999.90;999.90;;;9.20;97.70;;;;;;5036960;28;20081;-73
2023/10/02 04:34:23;;;;;;;1999.90;999.90;;;9.20;97.80;;;;;;5039939;28;20033;-74
2023/10/02 04:36:51;;;;;;;1999.90;999.90;;;9.30;97.90;;;;;;5035212;28;20107;-73
2023/10/02 04:42:19;;;;;;;1999.90;999.90;;;9.40;97.90;;;;;;5052677;28;20068;-72
2023/10/02 04:44:58;;;;;;;1999.90;999.90;;;9.30;97.90;;;;;;5038058;28;20060;-73
2023/10/02 04:47:28;;;;;;;1999.90;999.90;;;9.40;98.00;;;;;;5037937;28;20067;-72
2023/10/02 04:55:31;;;;;;;1999.90;999.90;;;9.40;98.50;;;;;;5038798;28;20040;-73
2023/10/02 04:58:09;;;;;;;1999.90;999.90;;;9.40;98.40;;;;;;5041008;28;20029;-74
2023/10/02 05:00:35;;;;;;;1999.90;999.90;;;9.40;98.50;;;;;;5035474;28;20069;-73
2023/10/02 05:05:58;;;;;;;1999.90;999.90;;;9.40;98.60;;;;;;5035181;28;20128;-73
2023/10/02 05:11:23;;;;;;;1999.90;999.90;;;9.80;99.20;;;;;;5037696;28;20040;-74
2023/10/02 05:16:33;;;;;;;1999.90;999.90;;;10.30;99.90;;;;;;5034793;28;20629;-72
2023/10/02 05:19:01;;;;;;;1999.90;999.90;;;10.40;99.90;;;;;;5039192;28;20547;-73
2023/10/02 05:21:39;;;;;;;1999.90;999.90;;;10.50;99.90;;;;;;5046054;28;20175;-73
2023/10/02 05:24:15;;;;;;;1999.90;999.90;;;10.60;99.90;;;;;;5032159;28;20394;-73
2023/10/02 05:26:44;;;;;;;1999.90;999.90;;;10.60;99.90;;;;;;5032732;28;20033;-73
2023/10/02 05:29:17;;;;;;;1999.90;999.90;;;10.60;99.90;;;;;;5036504;28;20029;-74
2023/10/02 05:31:45;;;;;;;1999.90;999.90;;;10.60;99.90;;;;;;5041237;28;20096;-73
2023/10/02 05:34:21;;;;;;;1999.90;999.90;;;10.60;99.90;;;;;;5043535;28;20037;-72
2023/10/02 05:37:11;;;;;;;1999.90;999.90;;;10.60;99.90;;;;;;5037333;28;20021;-72
2023/10/02 05:39:40;;;;;;;1999.90;999.90;;;10.60;99.90;;;;;;5035818;28;20050;-73
2023/10/02 05:42:15;;;;;;;1999.90;999.90;;;10.60;99.90;;;;;;5041174;28;20044;-73
2023/10/02 05:44:45;;;;;;;1999.90;999.90;;;10.60;99.90;;;;;;5035604;28;20110;-73
2023/10/02 05:47:35;;;;;;;1999.90;999.90;;;10.70;99.90;;;;;;5038583;28;20082;-73
2023/10/02 05:50:04;;;;;;;1999.90;999.90;;;10.80;99.90;;;;;;5035833;28;20045;-73
2023/10/02 05:52:30;;;;;;;1999.90;999.90;;;10.70;99.90;;;;;;5041847;28;20043;-73
2023/10/02 05:54:55;;;;;;;1999.90;999.90;;;10.80;99.90;;;;;;5038379;28;20112;-73
2023/10/02 05:57:22;;;;;;;1999.90;999.90;;;10.80;99.90;;;;;;5036956;28;20029;-74
2023/10/02 05:59:48;;;;;;;1999.90;999.90;;;10.90;99.90;;;;;;5038614;28;20116;-73
2023/10/02 06:02:19;;;;;;;1999.90;999.90;;;10.90;99.90;;;;;;5035537;28;20144;-73
2023/10/02 06:04:49;;;;;;;1999.90;999.90;;;10.90;99.90;;;;;;5036979;28;20751;-73
2023/10/02 06:10:07;;;;;;;1999.90;999.90;;;10.90;99.90;;;;;;5032377;28;20095;-72
2023/10/02 06:12:34;;;;;;;1999.90;999.90;;;10.90;99.90;;;;;;5036622;28;20039;-73
2023/10/02 06:15:09;;;;;;;1999.90;999.90;;;11.00;99.90;;;;;;5031955;28;20025;-73
2023/10/02 06:17:36;;;;;;;1999.90;999.90;;;11.00;99.80;;;;;;5035091;28;20030;-73
2023/10/02 06:20:02;;;;;;;1999.90;999.90;;;11.00;99.70;;;;;;5034160;28;20031;-74
2023/10/02 06:22:27;;;;;;;1999.90;999.90;;;11.00;99.70;;;;;;5031079;28;20026;-72
2023/10/02 06:24:53;;;;;;;1999.90;999.90;;;11.10;99.60;;;;;;5035693;28;20505;-73
2023/10/02 06:27:22;;;;;;;1999.90;999.90;;;11.10;99.60;;;;;;5036884;28;20067;-73
2023/10/02 06:29:49;;;;;;;1999.90;999.90;;;11.10;99.40;;;;;;5030528;28;20492;-74
2023/10/02 06:32:23;;;;;;;1999.90;999.90;;;11.20;99.50;;;;;;5031454;28;20053;-73
2023/10/02 06:34:57;;;;;;;1999.90;999.90;;;11.20;99.00;;;;;;5034298;28;20025;-74
2023/10/02 06:37:32;;;;;;;1999.90;999.90;;;11.20;99.00;;;;;;5025673;28;20104;-73
2023/10/02 06:40:14;;;;;;;1999.90;999.90;;;11.40;99.30;;;;;;5035938;28;20040;-74
2023/10/02 06:42:50;;;;;;;1999.90;999.90;;;11.50;99.10;;;;;;5037797;28;20110;-73
2023/10/02 06:45:20;;;;;;;1999.90;999.90;;;11.50;98.60;;;;;;5039028;28;20039;-74
2023/10/02 06:47:50;;;;;;;1999.90;999.90;;;11.60;98.60;;;;;;5036742;28;20037;-73
2023/10/02 06:50:27;;;;;;;1999.90;999.90;;;11.50;98.10;;;;;;5040274;28;20038;-74
2023/10/02 06:52:54;;;;;;;1999.90;999.90;;;11.60;98.20;;;;;;5038986;28;20044;-74
2023/10/02 06:55:21;;;;;;;1999.90;999.90;;;11.60;98.30;;;;;;5044671;28;20033;-73
2023/10/02 06:57:50;;;;;;;1999.90;999.90;;;11.70;98.20;;;;;;5039283;28;20033;-73
2023/10/02 07:00:20;;;;;;;1999.90;999.90;;;11.80;98.30;;;;;;5050839;28;20041;-73
2023/10/02 07:02:58;;;;;;;1999.90;999.90;;;11.90;98.10;;;;;;5035094;28;20029;-74
2023/10/02 07:05:27;;;;;;;1999.90;999.90;;;11.90;98.20;;;;;;5033227;28;20040;-74
2023/10/02 07:08:01;;;;;;;1999.90;999.90;;;11.90;98.20;;;;;;5041907;28;20391;-73
2023/10/02 07:10:42;;;;;;;1999.90;999.90;;;12.10;98.30;;;;;;5034304;28;20183;-74
2023/10/02 07:13:20;;;;;;;1999.90;999.90;;;12.40;98.30;;;;;;5034526;28;20592;-73
2023/10/02 07:15:57;;;;;;;1999.90;999.90;;;12.40;98.00;;;;;;5038505;28;20124;-74
2023/10/02 07:18:49;;;;;;;1999.90;999.90;;;12.40;97.90;;;;;;5034312;28;20025;-73
2023/10/02 07:21:13;;;;;;;1999.90;999.90;;;12.50;97.90;;;;;;5039969;28;20524;-73
2023/10/02 07:23:38;;;;;;;1999.90;999.90;;;12.70;97.40;;;;;;5038114;28;20079;-73
2023/10/02 07:26:05;;;;;;;1999.90;999.90;;;12.70;97.60;;;;;;5040180;28;20422;-73
2023/10/02 07:28:31;;;;;;;1999.90;999.90;;;13.00;97.80;;;;;;5040140;28;20056;-72
2023/10/02 07:30:59;;;;;;;1999.90;999.90;;;13.30;97.50;;;;;;5040463;28;20443;-74
2023/10/02 07:33:25;;;;;;;1999.90;999.90;;;13.30;96.90;;;;;;5039847;28;20497;-73
2023/10/02 07:35:54;;;;;;;1999.90;999.90;;;13.60;97.00;;;;;;5035433;28;20038;-74
2023/10/02 07:38:30;;;;;;;1999.90;999.90;;;13.70;96.40;;;;;;5035871;28;20036;-74
2023/10/02 07:41:08;;;;;;;1999.90;999.90;;;13.60;96.30;;;;;;5034995;28;20014;-74
2023/10/02 07:43:34;;;;;;;1999.90;999.90;;;13.60;96.20;;;;;;5039869;28;20372;-74
2023/10/02 07:46:14;;;;;;;1999.90;999.90;;;13.70;96.20;;;;;;5035485;28;20036;-74
2023/10/02 07:48:41;;;;;;;1999.90;999.90;;;13.80;96.00;;;;;;5037919;28;20034;-74
2023/10/02 07:51:10;;;;;;;1999.90;999.90;;;13.80;95.80;;;;;;5044449;28;20090;-74
2023/10/02 07:53:39;;;;;;;1999.90;999.90;;;13.80;95.90;;;;;;5043234;28;20055;-74
2023/10/02 07:56:14;;;;;;;1999.90;999.90;;;13.90;95.80;;;;;;5034174;28;20041;-74
2023/10/02 07:58:43;;;;;;;1999.90;999.90;;;13.90;95.90;;;;;;5040452;28;20033;-74
2023/10/02 08:01:12;;;;;;;1999.90;999.90;;;14.10;95.80;;;;;;5039269;28;20091;-74
2023/10/02 08:03:43;;;;;;;1999.90;999.90;;;14.30;95.70;;;;;;5042372;28;20119;-73
2023/10/02 08:11:41;;;;;;;1999.90;999.90;;;14.30;95.10;;;;;;5036634;28;20040;-73
2023/10/02 08:14:34;;;;;;;1999.90;999.90;;;14.40;95.40;;;;;;5043444;28;20033;-73
2023/10/02 08:17:00;;;;;;;1999.90;999.90;;;14.50;95.10;;;;;;5038883;28;20485;-73
2023/10/02 08:19:27;;;;;;;1999.90;999.90;;;14.30;95.00;;;;;;5043281;28;20087;-73
2023/10/02 08:21:53;;;;;;;1999.90;999.90;;;14.30;95.20;;;;;;5038844;28;20049;-73
2023/10/02 08:24:19;;;;;;;1999.90;999.90;;;14.40;95.30;;;;;;5039169;28;20033;-73
2023/10/02 08:26:45;;;;;;;1999.90;999.90;;;14.50;95.40;;;;;;5033004;28;20037;-73
2023/10/02 08:29:15;;;;;;;1999.90;999.90;;;14.60;95.30;;;;;;5040472;28;20032;-73
2023/10/02 08:31:48;;;;;;;1999.90;999.90;;;14.80;95.30;;;;;;5032081;28;20124;-73
2023/10/02 08:34:24;;;;;;;1999.90;999.90;;;14.90;95.20;;;;;;5035587;28;20480;-73
2023/10/02 08:37:07;;;;;;;1999.90;999.90;;;15.10;94.90;;;;;;5037193;28;20706;-73
2023/10/02 08:39:34;;;;;;;1999.90;999.90;;;15.30;94.60;;;;;;5033677;28;20272;-73
2023/10/02 08:42:08;;;;;;;1999.90;999.90;;;15.40;94.40;;;;;;5042867;28;20041;-73
2023/10/02 08:44:43;;;;;;;1999.90;999.90;;;15.50;93.80;;;;;;5035997;28;20033;-73
2023/10/02 08:47:28;;;;;;;1999.90;999.90;;;15.70;93.60;;;;;;5041203;28;20480;-73
2023/10/02 08:50:03;;;;;;;1999.90;999.90;;;15.90;93.60;;;;;;5039953;28;20045;-73
2023/10/02 08:52:38;;;;;;;1999.90;999.90;;;16.10;93.20;;;;;;5037641;28;20041;-73
2023/10/02 08:55:34;;;;;;;1999.90;999.90;;;16.30;92.70;;;;;;5038779;28;20410;-73
2023/10/02 08:58:16;;;;;;;1999.90;999.90;;;16.30;92.10;;;;;;5029577;28;20033;-73
2023/10/02 09:03:41;;;;;;;1999.90;999.90;;;16.70;91.30;;;;;;5035462;28;20391;-73
2023/10/02 09:06:35;;;;;;;1999.90;999.90;;;16.80;90.60;;;;;;5037073;28;20033;-73
2023/10/02 09:11:44;;;;;;;1999.90;999.90;;;17.10;90.10;;;;;;5033720;28;20491;-73
2023/10/02 09:14:21;;;;;;;1999.90;999.90;;;17.40;89.90;;;;;;5037378;28;20031;-73
2023/10/02 09:17:07;;;;;;;1999.90;999.90;;;17.50;87.50;;;;;;5036275;28;20038;-73
2023/10/02 09:19:34;;;;;;;1999.90;999.90;;;17.60;87.40;;;;;;5033730;28;20168;-73
2023/10/02 09:22:10;;;;;;;1999.90;999.90;;;17.70;86.70;;;;;;5035777;28;20086;-73
2023/10/02 09:24:55;;;;;;;1999.90;999.90;;;18.00;85.30;;;;;;5033380;28;20103;-73
2023/10/02 09:27:23;;;;;;;1999.90;999.90;;;18.10;85.60;;;;;;5039219;28;20060;-73
2023/10/02 09:33:07;;;;;;;1999.90;999.90;;;18.30;84.40;;;;;;5049792;28;20087;-73
2023/10/02 09:35:44;;;;;;;1999.90;999.90;;;18.80;85.90;;;;;;5047541;28;20120;-71
2023/10/02 09:38:10;;;;;;;1999.90;999.90;;;18.80;81.60;;;;;;5043259;28;20488;-72
2023/10/02 09:40:58;;;;;;;1999.90;999.90;;;18.90;81.90;;;;;;5040885;28;20605;-72
2023/10/02 09:43:30;;;;;;;1999.90;999.90;;;18.80;79.30;;;;;;5035065;28;20028;-73
2023/10/02 09:46:05;;;;;;;1999.90;999.90;;;18.80;80.00;;;;;;5028721;28;20044;-74
2023/10/02 09:48:46;;;;;;;1999.90;999.90;;;19.00;78.70;;;;;;5036947;28;20036;-74
2023/10/02 09:51:30;;;;;;;1999.90;999.90;;;19.10;78.20;;;;;;5037291;28;20112;-73
2023/10/02 09:54:28;;;;;;;1999.90;999.90;;;19.00;79.60;;;;;;5039672;28;20040;-73
2023/10/02 09:57:04;;;;;;;1999.90;999.90;;;19.20;77.80;;;;;;5037414;28;20124;-74
2023/10/02 09:59:37;;;;;;;1999.90;999.90;;;19.20;78.10;;;;;;5037235;28;20462;-74
2023/10/02 10:02:56;;;;;;;1999.90;999.90;;;19.60;78.50;;;;;;5038165;28;20045;-73
2023/10/02 10:10:27;;;;;;;1999.90;999.90;;;19.80;74.70;;;;;;5035869;28;20041;-73
2023/10/02 10:12:58;;;;;;;1999.90;999.90;;;20.10;76.00;;;;;;5062521;28;20029;-71
2023/10/02 10:15:25;;;;;;;1999.90;999.90;;;20.10;73.50;;;;;;5032591;28;20076;-71
2023/10/02 10:17:51;;;;;;;1999.90;999.90;;;20.30;74.70;;;;;;5043467;28;20036;-71
2023/10/02 10:20:20;;;;;;;1999.90;999.90;;;20.50;73.80;;;;;;5032467;28;20040;-73
2023/10/02 10:22:56;;;;;;;1999.90;999.90;;;20.50;73.50;;;;;;5028751;28;20033;-72
2023/10/02 10:28:05;;;;;;;1999.90;999.90;;;20.90;74.60;;;;;;5042215;28;20025;-71
2023/10/02 10:30:33;;;;;;;1999.90;999.90;;;21.00;71.90;;;;;;5034218;28;20037;-71
2023/10/02 10:35:38;;;;;;;1999.90;999.90;;;21.10;69.50;;;;;;5036942;28;20043;-72
2023/10/02 10:38:25;;;;;;;1999.90;999.90;;;21.30;68.30;;;;;;5033783;28;20117;-72
2023/10/02 10:41:01;;;;;;;1999.90;999.90;;;21.60;66.90;;;;;;5037980;28;20037;-72
2023/10/02 10:46:29;;;;;;;1999.90;999.90;;;22.10;62.90;;;;;;5035961;28;20044;-72
2023/10/02 10:49:08;;;;;;;1999.90;999.90;;;22.10;63.80;;;;;;5039236;28;20037;-72
2023/10/02 10:51:38;;;;;;;1999.90;999.90;;;22.50;64.80;;;;;;5038125;28;20037;-72
2023/10/02 10:54:25;;;;;;;1999.90;999.90;;;23.10;62.00;;;;;;5031015;28;20061;-72
2023/10/02 10:57:22;;;;;;;1999.90;999.90;;;23.30;62.10;;;;;;5034971;28;20029;-72
2023/10/02 11:00:23;;;;;;;1999.90;999.90;;;23.20;60.80;;;;;;5037179;28;20383;-72
2023/10/02 11:03:06;;;;;;;1999.90;999.90;;;23.30;58.40;;;;;;5036948;28;20592;-72
2023/10/02 11:05:33;;;;;;;1999.90;999.90;;;23.50;56.70;;;;;;5035869;28;20037;-72
2023/10/02 11:08:10;;;;;;;1999.90;999.90;;;23.80;58.00;;;;;;5038862;28;20037;-72
2023/10/02 11:10:36;;;;;;;1999.90;999.90;;;23.60;56.10;;;;;;5034690;28;20037;-72
2023/10/02 11:13:08;;;;;;;1999.90;999.90;;;23.80;57.60;;;;;;5040509;28;20041;-72
2023/10/02 11:15:47;;;;;;;1999.90;999.90;;;23.50;58.20;;;;;;5036902;28;20044;-72
2023/10/02 11:18:22;;;;;;;1999.90;999.90;;;23.10;60.80;;;;;;5032358;28;20029;-72
2023/10/02 11:21:00;;;;;;;1999.90;999.90;;;23.00;60.60;;;;;;5034879;28;20107;-72
2023/10/02 11:23:37;;;;;;;1999.90;999.90;;;23.00;60.90;;;;;;5037720;28;20125;-72
2023/10/02 11:26:11;;;;;;;1999.90;999.90;;;23.80;60.30;;;;;;5035533;28;20459;-72
2023/10/02 11:28:37;;;;;;;1999.90;999.90;;;24.40;54.70;;;;;;5040191;28;20054;-72
2023/10/02 11:31:30;;;;;;;1999.90;999.90;;;25.00;56.80;;;;;;5034123;28;20128;-72
2023/10/02 11:34:01;;;;;;;1999.90;999.90;;;25.80;51.90;;;;;;5028094;28;20052;-72
2023/10/02 11:36:34;;;;;;;1999.90;999.90;;;25.70;51.40;;;;;;5035611;28;20133;-72
2023/10/02 11:39:08;;;;;;;1999.90;999.90;;;26.20;49.50;;;;;;5035154;28;20026;-72
2023/10/02 11:41:38;;;;;;;1999.90;999.90;;;25.80;50.50;;;;;;5032549;28;20454;-72
2023/10/02 11:44:05;;;;;;;;;;;26.20;50.30;;;;;;5034564;28;20037;-72
2023/10/02 11:46:31;;;;;;;1999.90;999.90;;;26.50;49.50;;;;;;5038836;28;19913;-72
2023/10/02 11:48:56;;;;;;;1999.90;999.90;;;27.20;47.20;;;;;;5038178;28;20407;-72
2023/10/02 11:51:28;;;;;;;1999.90;999.90;;;26.60;48.20;;;;;;5039481;28;20037;-72
2023/10/02 11:53:58;;;;;;;1999.90;999.90;;;27.10;47.40;;;;;;5041069;28;20067;-72
2023/10/02 11:56:26;;;;;;;1999.90;999.90;;;26.90;47.60;;;;;;5039755;28;20043;-72
2023/10/02 11:58:52;;;;;;;1999.90;999.90;;;26.80;46.20;;;;;;5032402;28;20491;-72
2023/10/02 12:01:22;;;;;;;1999.90;999.90;;;26.70;46.30;;;;;;5037040;28;20530;-72
2023/10/02 12:03:50;;;;;;;;;;;27.60;46.00;;;;;;5043683;28;20029;-72
2023/10/02 12:06:16;;;;;;;1999.90;999.90;;;28.30;44.80;;;;;;5042858;28;19913;-72
2023/10/02 12:08:49;;;;;;;1999.90;999.90;;;28.70;42.10;;;;;;5037940;28;20029;-72
2023/10/02 12:11:14;;;;;;;1999.90;999.90;;;27.80;43.40;;;;;;5033744;28;20044;-72
2023/10/02 12:13:44;;;;;;;1999.90;999.90;;;27.70;43.30;;;;;;5038419;28;20030;-72
2023/10/02 12:16:11;;;;;;;;;;;28.10;45.10;;;;;;5038498;28;20036;-72
2023/10/02 12:18:42;;;;;;;1999.90;999.90;;;28.20;42.20;;;;;;5031988;28;20204;-72
2023/10/02 12:21:11;;;;;;;1999.90;999.90;;;28.80;41.00;;;;;;5043159;28;20068;-72
2023/10/02 12:23:39;;;;;;;1999.90;999.90;;;29.00;41.80;;;;;;5038179;28;20029;-72
2023/10/02 12:26:09;;;;;;;1999.90;999.90;;;29.40;40.20;;;;;;5038699;28;20402;-73
2023/10/02 12:28:38;;;;;;;1999.90;999.90;;;28.60;42.90;;;;;;5039592;28;20034;-73
2023/10/02 12:31:15;;;;;;;1999.90;999.90;;;28.90;41.40;;;;;;5036866;28;20143;-73
2023/10/02 12:33:41;;;;;;;1999.90;999.90;;;29.70;39.30;;;;;;5040387;28;20518;-72
2023/10/02 12:36:17;;;;;;;1999.90;999.90;;;30.60;37.50;;;;;;5036836;28;20041;-72
2023/10/02 12:38:48;;;;;;;1999.90;999.90;;;29.50;41.10;;;;;;5037280;28;20063;-72
2023/10/02 12:41:19;;;;;;;1999.90;999.90;;;30.20;40.30;;;;;;5035213;28;20035;-72
2023/10/02 12:43:47;;;;;;;1999.90;999.90;;;30.10;37.60;;;;;;5037521;28;20029;-72
2023/10/02 12:46:17;;;;;;;1999.90;999.90;;;30.50;39.00;;;;;;5035971;28;20022;-73
2023/10/02 12:48:46;;;;;;;1999.90;999.90;;;31.30;36.70;;;;;;5036205;28;20552;-72
2023/10/02 12:51:13;;;;;;;1999.90;999.90;;;30.80;36.10;;;;;;5036582;28;20038;-72
2023/10/02 12:53:39;;;;;;;1999.90;999.90;;;30.40;38.40;;;;;;5039990;28;20033;-73
2023/10/02 12:56:05;;;;;;;1999.90;999.90;;;31.40;35.40;;;;;;5030636;28;20026;-72
2023/10/02 12:58:36;;;;;;;1999.90;999.90;;;31.40;35.90;;;;;;5033544;28;20498;-73
2023/10/02 13:01:02;;;;;;;1999.90;999.90;;;32.00;33.30;;;;;;5040285;28;20499;-72
2023/10/02 13:03:31;;;;;;;1999.90;999.90;;;32.50;32.50;;;;;;5040688;28;20033;-73
2023/10/02 13:05:59;;;;;;;1999.90;999.90;;;32.00;33.10;;;;;;5038533;28;20025;-72
2023/10/02 13:08:26;;;;;;;1999.90;999.90;;;32.10;33.30;;;;;;5041547;28;20033;-72
2023/10/02 13:10:53;;;;;;;1999.90;999.90;;;32.70;32.00;;;;;;5039146;28;20115;-73
2023/10/02 13:13:19;;;;;;;1999.90;999.90;;;32.90;32.30;;;;;;5035803;28;20036;-72
2023/10/02 13:15:48;;;;;;;1999.90;999.90;;;32.70;32.20;;;;;;5041622;28;20025;-73
2023/10/02 13:18:14;;;;;;;1999.90;999.90;;;32.50;33.00;;;;;;5037065;28;20041;-73
2023/10/02 13:20:40;;;;;;;1999.90;999.90;;;31.80;33.60;;;;;;5038045;28;20036;-73
2023/10/02 13:23:06;;;;;;;1999.90;999.90;;;32.10;31.80;;;;;;5040906;28;20041;-73
2023/10/02 13:25:31;;;;;;;1999.90;999.90;;;32.30;33.20;;;;;;5037264;28;20041;-72